Time,TemperatureF,DewpointF,PressureIn,WindDirection,WindDirectionDegrees,WindSpeedMPH,WindSpeedGustMPH,Humidity,HourlyPrecipIn,Conditions,Clouds,dailyrainin,SoftwareType,DateUTC
2013-01-15 00:04:00,17.8,11.8,30.36,West,269,0.0,0.0,77,0.00,,SKC,0.00,VWS V13.01,2013-01-15 06:04:00,
2013-01-15 00:09:00,17.7,12.0,30.37,West,269,0.0,0.0,78,0.00,,SKC,0.00,VWS V13.01,2013-01-15 06:09:00,
2013-01-15 00:15:00,17.7,12.0,30.36,West,269,0.0,0.0,78,0.00,,SKC,0.00,VWS V13.01,2013-01-15 06:15:00,
2013-01-15 00:21:00,17.6,11.9,30.37,West,269,0.0,0.0,78,0.00,,SKC,0.00,VWS V13.01,2013-01-15 06:21:00,
2013-01-15 00:26:00,17.5,11.8,30.37,West,269,0.0,0.0,78,0.00,,SKC,0.00,VWS V13.01,2013-01-15 06:26:00,
2013-01-15 00:31:00,17.5,11.8,30.37,West,269,0.0,0.0,78,0.00,,SKC,0.00,VWS V13.01,2013-01-15 06:31:00,
2013-01-15 00:36:00,17.5,11.8,30.37,West,269,0.0,0.0,78,0.00,,SKC,0.00,VWS V13.01,2013-01-15 06:36:00,
2013-01-15 00:41:00,17.4,11.7,30.36,West,269,0.0,0.0,78,0.00,,SKC,0.00,VWS V13.01,2013-01-15 06:41:00,
2013-01-15 00:47:00,17.3,11.6,30.36,West,269,0.0,0.0,78,0.00,,SKC,0.00,VWS V13.01,2013-01-15 06:47:00,
2013-01-15 00:52:00,17.3,11.6,30.37,West,269,0.0,0.0,78,0.00,,SKC,0.00,VWS V13.01,2013-01-15 06:52:00,
2013-01-15 00:58:00,17.2,11.5,30.37,West,269,0.0,0.0,78,0.00,,SKC,0.00,VWS V13.01,2013-01-15 06:58:00,
2013-01-15 01:04:00,17.0,11.3,30.37,West,269,0.0,0.0,78,0.00,,SKC,0.00,VWS V13.01,2013-01-15 07:04:00,
2013-01-15 01:09:00,16.9,11.2,30.36,West,269,0.0,0.0,78,0.00,,SKC,0.00,VWS V13.01,2013-01-15 07:09:00,
2013-01-15 01:15:00,16.9,11.2,30.36,West,269,0.0,0.0,78,0.00,,SKC,0.00,VWS V13.01,2013-01-15 07:15:00,
2013-01-15 01:20:00,17.0,11.6,30.36,West,269,0.0,0.0,79,0.00,,SKC,0.00,VWS V13.01,2013-01-15 07:20:00,
2013-01-15 01:25:00,17.2,11.8,30.36,West,269,0.0,0.0,79,0.00,,SKC,0.00,VWS V13.01,2013-01-15 07:25:00,
2013-01-15 01:30:00,17.3,11.9,30.36,West,269,0.0,0.0,79,0.00,,SKC,0.00,VWS V13.01,2013-01-15 07:30:00,
2013-01-15 01:35:00,17.4,12.0,30.36,West,269,0.0,0.0,79,0.00,,SKC,0.00,VWS V13.01,2013-01-15 07:35:00,
2013-01-15 01:40:00,17.5,12.1,30.36,West,269,0.0,0.0,79,0.00,,SKC,0.00,VWS V13.01,2013-01-15 07:40:00,
2013-01-15 01:45:00,17.5,11.8,30.36,West,269,0.0,0.0,78,0.00,,SKC,0.00,VWS V13.01,2013-01-15 07:45:00,
2013-01-15 01:50:00,17.3,11.6,30.36,West,269,0.0,0.0,78,0.00,,SKC,0.00,VWS V13.01,2013-01-15 07:50:00,
2013-01-15 01:56:00,17.1,11.1,30.36,West,269,0.0,0.0,77,0.00,,SKC,0.00,VWS V13.01,2013-01-15 07:56:00,
2013-01-15 02:01:00,16.9,10.9,30.35,West,269,0.0,0.0,77,0.00,,SKC,0.00,VWS V13.01,2013-01-15 08:01:00,
2013-01-15 02:06:00,16.7,11.1,30.35,West,269,0.0,0.0,78,0.00,,SKC,0.00,VWS V13.01,2013-01-15 08:06:00,
2013-01-15 02:11:00,16.6,10.9,30.35,West,269,0.0,0.0,78,0.00,,SKC,0.00,VWS V13.01,2013-01-15 08:11:00,
2013-01-15 02:16:00,16.5,10.9,30.35,West,269,0.0,0.0,78,0.00,,SKC,0.00,VWS V13.01,2013-01-15 08:16:00,
2013-01-15 02:22:00,16.4,10.8,30.35,West,269,0.0,0.0,78,0.00,,SKC,0.00,VWS V13.01,2013-01-15 08:22:00,
2013-01-15 02:27:00,16.4,10.8,30.35,West,269,0.0,0.0,78,0.00,,SKC,0.00,VWS V13.01,2013-01-15 08:27:00,
2013-01-15 02:32:00,16.3,10.7,30.35,West,269,0.0,0.0,78,0.00,,SKC,0.00,VWS V13.01,2013-01-15 08:32:00,
2013-01-15 02:37:00,16.3,10.7,30.35,West,269,0.0,0.0,78,0.00,,SKC,0.00,VWS V13.01,2013-01-15 08:37:00,
2013-01-15 02:42:00,16.2,10.8,30.35,West,269,0.0,0.0,79,0.00,,SKC,0.00,VWS V13.01,2013-01-15 08:42:00,
2013-01-15 02:47:00,16.1,10.8,30.35,West,269,0.0,0.0,79,0.00,,SKC,0.00,VWS V13.01,2013-01-15 08:47:00,
2013-01-15 02:52:00,16.2,10.8,30.35,West,269,0.0,0.0,79,0.00,,SKC,0.00,VWS V13.01,2013-01-15 08:52:00,
2013-01-15 02:58:00,16.2,11.1,30.35,West,269,0.0,0.0,80,0.00,,SKC,0.00,VWS V13.01,2013-01-15 08:58:00,
2013-01-15 03:04:00,16.2,10.8,30.35,West,269,0.0,0.0,79,0.00,,SKC,0.00,VWS V13.01,2013-01-15 09:04:00,
2013-01-15 03:09:00,16.1,10.8,30.35,West,269,0.0,0.0,79,0.00,,SKC,0.00,VWS V13.01,2013-01-15 09:09:00,
2013-01-15 03:14:00,16.1,11.0,30.35,West,269,0.0,0.0,80,0.00,,SKC,0.00,VWS V13.01,2013-01-15 09:14:00,
2013-01-15 03:19:00,16.1,11.0,30.35,West,269,0.0,0.0,80,0.00,,SKC,0.00,VWS V13.01,2013-01-15 09:19:00,
2013-01-15 03:24:00,16.0,10.9,30.35,West,269,0.0,0.0,80,0.00,,SKC,0.00,VWS V13.01,2013-01-15 09:24:00,
2013-01-15 03:30:00,15.9,10.6,30.34,West,269,0.0,0.0,79,0.00,,SKC,0.00,VWS V13.01,2013-01-15 09:30:00,
2013-01-15 03:36:00,15.7,10.4,30.34,West,269,0.0,0.0,79,0.00,,SKC,0.00,VWS V13.01,2013-01-15 09:36:00,
2013-01-15 03:41:00,15.5,10.2,30.34,West,269,0.0,0.0,79,0.00,,SKC,0.00,VWS V13.01,2013-01-15 09:41:00,
2013-01-15 03:46:00,15.3,10.0,30.34,West,269,0.0,0.0,79,0.00,,SKC,0.00,VWS V13.01,2013-01-15 09:46:00,
2013-01-15 03:51:00,15.3,10.2,30.34,West,269,0.0,0.0,80,0.00,,SKC,0.00,VWS V13.01,2013-01-15 09:51:00,
2013-01-15 03:56:00,15.2,10.1,30.34,West,269,0.0,0.0,80,0.00,,SKC,0.00,VWS V13.01,2013-01-15 09:56:00,
2013-01-15 04:01:00,15.1,10.1,30.34,West,269,0.0,0.0,80,0.00,,SKC,0.00,VWS V13.01,2013-01-15 10:01:00,
2013-01-15 04:06:00,15.0,10.0,30.33,West,269,0.0,0.0,80,0.00,,SKC,0.00,VWS V13.01,2013-01-15 10:06:00,
2013-01-15 04:11:00,14.9,9.9,30.33,West,269,0.0,0.0,80,0.00,,SKC,0.00,VWS V13.01,2013-01-15 10:11:00,
2013-01-15 04:17:00,14.8,9.8,30.33,West,269,0.0,0.0,80,0.00,,SKC,0.00,VWS V13.01,2013-01-15 10:17:00,
2013-01-15 04:22:00,14.8,10.0,30.33,West,269,0.0,0.0,81,0.00,,SKC,0.00,VWS V13.01,2013-01-15 10:22:00,
2013-01-15 04:27:00,14.7,9.9,30.33,West,269,0.0,0.0,81,0.00,,SKC,0.00,VWS V13.01,2013-01-15 10:27:00,
2013-01-15 04:32:00,14.6,9.8,30.33,West,269,0.0,0.0,81,0.00,,SKC,0.00,VWS V13.01,2013-01-15 10:32:00,
2013-01-15 04:37:00,14.6,10.1,30.33,West,269,0.0,0.0,82,0.00,,SKC,0.00,VWS V13.01,2013-01-15 10:37:00,
2013-01-15 04:42:00,14.7,10.2,30.32,West,269,0.0,0.0,82,0.00,,SKC,0.00,VWS V13.01,2013-01-15 10:42:00,
2013-01-15 04:47:00,14.6,10.1,30.33,West,269,0.0,0.0,82,0.00,,SKC,0.00,VWS V13.01,2013-01-15 10:47:00,
2013-01-15 04:52:00,14.5,10.0,30.32,West,269,0.0,0.0,82,0.00,,SKC,0.00,VWS V13.01,2013-01-15 10:52:00,
2013-01-15 04:58:00,14.4,9.9,30.32,West,269,0.0,0.0,82,0.00,,SKC,0.00,VWS V13.01,2013-01-15 10:58:00,
2013-01-15 05:04:00,14.3,9.8,30.32,West,269,0.0,0.0,82,0.00,,SKC,0.00,VWS V13.01,2013-01-15 11:04:00,
2013-01-15 05:09:00,14.3,9.8,30.32,West,269,0.0,0.0,82,0.00,,SKC,0.00,VWS V13.01,2013-01-15 11:09:00,
2013-01-15 05:14:00,14.2,9.7,30.32,West,269,0.0,0.0,82,0.00,,SKC,0.00,VWS V13.01,2013-01-15 11:14:00,
2013-01-15 05:20:00,14.2,10.0,30.32,West,269,0.0,0.0,83,0.00,,SKC,0.00,VWS V13.01,2013-01-15 11:20:00,
2013-01-15 05:25:00,14.1,9.6,30.32,West,269,0.0,0.0,82,0.00,,SKC,0.00,VWS V13.01,2013-01-15 11:25:00,
2013-01-15 05:31:00,14.1,9.9,30.32,West,269,0.0,0.0,83,0.00,,SKC,0.00,VWS V13.01,2013-01-15 11:31:00,
2013-01-15 05:36:00,14.1,9.9,30.32,West,269,0.0,0.0,83,0.00,,SKC,0.00,VWS V13.01,2013-01-15 11:36:00,
2013-01-15 05:41:00,14.1,9.9,30.32,West,269,0.0,0.0,83,0.00,,SKC,0.00,VWS V13.01,2013-01-15 11:41:00,
2013-01-15 05:46:00,14.0,9.8,30.32,West,269,0.0,0.0,83,0.00,,SKC,0.00,VWS V13.01,2013-01-15 11:46:00,
2013-01-15 05:51:00,14.0,9.8,30.32,West,269,0.0,0.0,83,0.00,,SKC,0.00,VWS V13.01,2013-01-15 11:51:00,
2013-01-15 05:56:00,13.9,9.7,30.32,West,269,0.0,0.0,83,0.00,,SKC,0.00,VWS V13.01,2013-01-15 11:56:00,
2013-01-15 06:02:00,13.8,9.6,30.33,West,269,0.0,0.0,83,0.00,,SKC,0.00,VWS V13.01,2013-01-15 12:02:00,
2013-01-15 06:07:00,13.7,9.5,30.33,West,269,0.0,0.0,83,0.00,,SKC,0.00,VWS V13.01,2013-01-15 12:07:00,
2013-01-15 06:12:00,13.9,10.0,30.33,West,269,0.0,0.0,84,0.00,,SKC,0.00,VWS V13.01,2013-01-15 12:12:00,
2013-01-15 06:17:00,13.9,10.0,30.32,West,269,0.0,0.0,84,0.00,,SKC,0.00,VWS V13.01,2013-01-15 12:17:00,
2013-01-15 06:22:00,14.1,10.2,30.32,West,269,0.0,0.0,84,0.00,,SKC,0.00,VWS V13.01,2013-01-15 12:22:00,
2013-01-15 06:27:00,14.2,10.3,30.32,West,269,0.0,0.0,84,0.00,,SKC,0.00,VWS V13.01,2013-01-15 12:27:00,
2013-01-15 06:33:00,14.4,10.5,30.32,West,269,0.0,0.0,84,0.00,,SKC,0.00,VWS V13.01,2013-01-15 12:33:00,
2013-01-15 06:38:00,14.4,10.5,30.32,West,269,0.0,0.0,84,0.00,,SKC,0.00,VWS V13.01,2013-01-15 12:38:00,
2013-01-15 06:43:00,14.5,10.6,30.32,West,269,0.0,0.0,84,0.00,,SKC,0.00,VWS V13.01,2013-01-15 12:43:00,
2013-01-15 06:49:00,14.5,10.6,30.32,West,269,0.0,0.0,84,0.00,,SKC,0.00,VWS V13.01,2013-01-15 12:49:00,
2013-01-15 06:54:00,14.5,10.6,30.32,West,269,0.0,0.0,84,0.00,,SKC,0.00,VWS V13.01,2013-01-15 12:54:00,
2013-01-15 06:59:00,14.6,10.7,30.32,West,269,0.0,0.0,84,0.00,,SKC,0.00,VWS V13.01,2013-01-15 12:59:00,
2013-01-15 07:04:00,14.6,10.7,30.33,West,269,0.0,0.0,84,0.00,,SKC,0.00,VWS V13.01,2013-01-15 13:04:00,
2013-01-15 07:09:00,14.7,10.8,30.33,West,269,0.0,0.0,84,0.00,,SKC,0.00,VWS V13.01,2013-01-15 13:09:00,
2013-01-15 07:14:00,15.0,11.3,30.33,West,269,0.0,0.0,85,0.00,,SKC,0.00,VWS V13.01,2013-01-15 13:14:00,
2013-01-15 07:19:00,15.1,11.1,30.33,West,269,0.0,0.0,84,0.00,,SKC,0.00,VWS V13.01,2013-01-15 13:19:00,
2013-01-15 07:24:00,15.2,11.2,30.33,West,269,0.0,0.0,84,0.00,,SKC,0.00,VWS V13.01,2013-01-15 13:24:00,
2013-01-15 07:29:00,15.3,11.3,30.33,West,269,0.0,0.0,84,0.00,,SKC,0.00,VWS V13.01,2013-01-15 13:29:00,
2013-01-15 07:35:00,15.4,11.4,30.33,West,269,0.0,0.0,84,0.00,,SKC,0.00,VWS V13.01,2013-01-15 13:35:00,
2013-01-15 07:40:00,15.6,11.6,30.33,West,269,0.0,0.0,84,0.00,,SKC,0.00,VWS V13.01,2013-01-15 13:40:00,
2013-01-15 07:45:00,15.7,11.7,30.33,West,269,0.0,0.0,84,0.00,,SKC,0.00,VWS V13.01,2013-01-15 13:45:00,
2013-01-15 07:50:00,15.7,11.7,30.34,West,269,0.0,0.0,84,0.00,,SKC,0.00,VWS V13.01,2013-01-15 13:50:00,
2013-01-15 07:55:00,15.8,11.8,30.33,West,269,0.0,0.0,84,0.00,,SKC,0.00,VWS V13.01,2013-01-15 13:55:00,
2013-01-15 08:00:00,15.7,11.5,30.33,West,269,0.0,0.0,83,0.00,,SKC,0.00,VWS V13.01,2013-01-15 14:00:00,
2013-01-15 08:05:00,15.7,11.5,30.33,West,269,0.0,0.0,83,0.00,,SKC,0.00,VWS V13.01,2013-01-15 14:05:00,
2013-01-15 08:10:00,15.7,11.5,30.33,West,269,0.0,0.0,83,0.00,,SKC,0.00,VWS V13.01,2013-01-15 14:10:00,
2013-01-15 08:15:00,15.6,11.4,30.33,West,269,0.0,0.0,83,0.00,,SKC,0.00,VWS V13.01,2013-01-15 14:15:00,
2013-01-15 08:20:00,15.8,11.6,30.33,West,269,0.0,0.0,83,0.00,,SKC,0.00,VWS V13.01,2013-01-15 14:20:00,
2013-01-15 08:25:00,16.2,12.0,30.33,West,269,0.0,0.0,83,0.00,,SKC,0.00,VWS V13.01,2013-01-15 14:25:00,
2013-01-15 08:30:00,16.4,12.1,30.33,West,269,0.0,0.0,83,0.00,,SKC,0.00,VWS V13.01,2013-01-15 14:30:00,
2013-01-15 08:35:00,16.8,12.5,30.33,West,269,0.0,0.0,83,0.00,,SKC,0.00,VWS V13.01,2013-01-15 14:35:00,
2013-01-15 08:40:00,17.2,12.9,30.33,West,269,0.0,0.0,83,0.00,,SKC,0.00,VWS V13.01,2013-01-15 14:40:00,
2013-01-15 08:45:00,17.4,13.1,30.33,West,269,0.0,0.0,83,0.00,,SKC,0.00,VWS V13.01,2013-01-15 14:45:00,
2013-01-15 08:50:00,18.0,13.7,30.34,West,269,0.0,0.0,83,0.00,,SKC,0.00,VWS V13.01,2013-01-15 14:50:00,
2013-01-15 08:55:00,18.5,13.9,30.34,West,269,0.0,0.0,82,0.00,,SKC,0.00,VWS V13.01,2013-01-15 14:55:00,
2013-01-15 09:00:00,19.0,14.4,30.34,West,269,0.0,0.0,82,0.00,,SKC,0.00,VWS V13.01,2013-01-15 15:00:00,
2013-01-15 09:05:00,19.3,14.4,30.33,West,269,0.0,0.0,81,0.00,,SKC,0.00,VWS V13.01,2013-01-15 15:05:00,
2013-01-15 09:10:00,19.8,14.6,30.33,West,269,0.0,0.0,80,0.00,,SKC,0.00,VWS V13.01,2013-01-15 15:10:00,
2013-01-15 09:15:00,20.4,15.2,30.33,West,269,0.0,0.0,80,0.00,,SKC,0.00,VWS V13.01,2013-01-15 15:15:00,
2013-01-15 09:20:00,21.1,15.9,30.33,West,269,0.0,0.0,80,0.00,,SKC,0.00,VWS V13.01,2013-01-15 15:20:00,
2013-01-15 09:25:00,21.3,15.2,30.33,West,269,0.0,0.0,77,0.00,,SKC,0.00,VWS V13.01,2013-01-15 15:25:00,
2013-01-15 09:31:00,22.1,16.0,30.33,WSW,258,0.0,0.0,77,0.00,,SKC,0.00,VWS V13.01,2013-01-15 15:31:00,
2013-01-15 09:36:00,23.0,16.9,30.33,WSW,256,0.0,0.0,77,0.00,,SKC,0.00,VWS V13.01,2013-01-15 15:36:00,
2013-01-15 09:41:00,23.8,17.4,30.33,WSW,256,0.0,0.0,76,0.00,,SKC,0.00,VWS V13.01,2013-01-15 15:41:00,
2013-01-15 09:46:00,23.9,16.5,30.33,WSW,256,0.0,0.0,73,0.00,,SKC,0.00,VWS V13.01,2013-01-15 15:46:00,
2013-01-15 09:51:00,23.8,15.5,30.32,WSW,248,1.0,1.0,70,0.00,,SKC,0.00,VWS V13.01,2013-01-15 15:51:00,
2013-01-15 09:56:00,24.3,16.3,30.32,SW,235,0.0,2.0,71,0.00,,SKC,0.00,VWS V13.01,2013-01-15 15:56:00,
2013-01-15 10:01:00,24.5,16.1,30.32,SW,224,1.0,1.0,70,0.00,,SKC,0.00,VWS V13.01,2013-01-15 16:01:00,
2013-01-15 10:06:00,24.9,16.2,30.31,SW,228,8.0,8.0,69,0.00,,SKC,0.00,VWS V13.01,2013-01-15 16:06:00,
2013-01-15 10:11:00,25.4,16.3,30.31,WSW,237,0.0,1.0,68,0.00,,SKC,0.00,VWS V13.01,2013-01-15 16:11:00,
2013-01-15 10:16:00,25.9,16.8,30.32,WSW,241,0.0,1.0,68,0.00,,SKC,0.00,VWS V13.01,2013-01-15 16:16:00,
2013-01-15 10:21:00,27.0,18.2,30.31,SW,226,0.0,1.0,69,0.00,,SKC,0.00,VWS V13.01,2013-01-15 16:21:00,
2013-01-15 10:27:00,27.2,17.7,30.31,SSW,206,1.0,1.0,67,0.00,,SKC,0.00,VWS V13.01,2013-01-15 16:27:00,
2013-01-15 10:32:00,27.3,17.8,30.31,SW,217,1.0,1.0,67,0.00,,SKC,0.00,VWS V13.01,2013-01-15 16:32:00,
2013-01-15 10:37:00,27.8,17.9,30.31,SW,216,0.0,1.0,66,0.00,,SKC,0.00,VWS V13.01,2013-01-15 16:37:00,
2013-01-15 10:42:00,28.7,18.1,30.31,WSW,239,1.0,2.0,64,0.00,,SKC,0.00,VWS V13.01,2013-01-15 16:42:00,
2013-01-15 10:47:00,28.7,18.1,30.31,SW,230,0.0,1.0,64,0.00,,SKC,0.00,VWS V13.01,2013-01-15 16:47:00,
2013-01-15 10:52:00,29.3,17.9,30.31,SW,230,1.0,2.0,62,0.00,,SKC,0.00,VWS V13.01,2013-01-15 16:52:00,
2013-01-15 10:57:00,29.4,17.2,30.30,WSW,243,0.0,4.0,60,0.00,,SKC,0.00,VWS V13.01,2013-01-15 16:57:00,
2013-01-15 11:02:00,29.6,17.4,30.30,WSW,250,0.0,1.0,60,0.00,,SKC,0.00,VWS V13.01,2013-01-15 17:02:00,
2013-01-15 11:08:00,30.7,18.5,30.30,WSW,243,0.0,0.0,60,0.00,,SKC,0.00,VWS V13.01,2013-01-15 17:08:00,
2013-01-15 11:13:00,31.6,17.3,30.30,West,261,0.0,9.0,55,0.00,,SKC,0.00,VWS V13.01,2013-01-15 17:13:00,
2013-01-15 11:18:00,30.8,16.5,30.29,WNW,284,1.0,3.0,55,0.00,,SKC,0.00,VWS V13.01,2013-01-15 17:18:00,
2013-01-15 11:23:00,31.1,16.4,30.29,SSW,204,3.0,10.0,54,0.00,,SKC,0.00,VWS V13.01,2013-01-15 17:23:00,
2013-01-15 11:28:00,31.6,17.7,30.29,SSW,193,0.0,1.0,56,0.00,,SKC,0.00,VWS V13.01,2013-01-15 17:28:00,
2013-01-15 11:33:00,32.0,16.8,30.28,SW,232,2.0,2.0,53,0.00,,SKC,0.00,VWS V13.01,2013-01-15 17:33:00,
2013-01-15 11:38:00,33.0,18.2,30.28,SW,224,3.0,5.0,54,0.00,,SKC,0.00,VWS V13.01,2013-01-15 17:38:00,
2013-01-15 11:43:00,33.0,17.3,30.28,SW,236,0.0,1.0,52,0.00,,SKC,0.00,VWS V13.01,2013-01-15 17:43:00,
2013-01-15 11:48:00,32.5,16.9,30.28,West,260,11.0,11.0,52,0.00,,SKC,0.00,VWS V13.01,2013-01-15 17:48:00,
2013-01-15 11:53:00,32.7,16.1,30.27,WNW,284,1.0,11.0,50,0.00,,SKC,0.00,VWS V13.01,2013-01-15 17:53:00,
2013-01-15 11:58:00,32.8,16.2,30.27,WSW,242,3.0,13.0,50,0.00,,SKC,0.00,VWS V13.01,2013-01-15 17:58:00,
2013-01-15 12:04:00,33.4,16.8,30.27,WNW,297,0.0,4.0,50,0.00,,SKC,0.00,VWS V13.01,2013-01-15 18:04:00,
2013-01-15 12:10:00,33.2,15.6,30.26,SSW,199,1.0,10.0,48,0.00,,SKC,0.00,VWS V13.01,2013-01-15 18:10:00,
2013-01-15 12:15:00,32.9,15.9,30.26,SW,228,1.0,3.0,49,0.00,,SKC,0.00,VWS V13.01,2013-01-15 18:15:00,
2013-01-15 12:20:00,33.6,17.0,30.25,SW,222,5.0,5.0,50,0.00,,SKC,0.00,VWS V13.01,2013-01-15 18:20:00,
2013-01-15 12:25:00,33.9,16.3,30.25,West,280,5.0,6.0,48,0.00,,SKC,0.00,VWS V13.01,2013-01-15 18:25:00,
2013-01-15 12:30:00,34.2,16.6,30.25,West,267,1.0,3.0,48,0.00,,SKC,0.00,VWS V13.01,2013-01-15 18:30:00,
2013-01-15 12:35:00,34.2,15.6,30.24,WSW,247,12.0,13.0,46,0.00,,SKC,0.00,VWS V13.01,2013-01-15 18:35:00,
2013-01-15 12:40:00,33.8,16.2,30.24,WSW,243,1.0,12.0,48,0.00,,SKC,0.00,VWS V13.01,2013-01-15 18:40:00,
2013-01-15 12:45:00,34.2,16.6,30.24,WNW,282,4.0,11.0,48,0.00,,SKC,0.00,VWS V13.01,2013-01-15 18:45:00,
2013-01-15 12:50:00,34.4,16.8,30.23,SSW,201,1.0,10.0,48,0.00,,SKC,0.00,VWS V13.01,2013-01-15 18:50:00,
2013-01-15 12:55:00,34.4,16.3,30.23,WSW,247,6.0,16.0,47,0.00,,SKC,0.00,VWS V13.01,2013-01-15 18:55:00,
2013-01-15 13:01:00,35.0,16.8,30.23,SW,217,0.0,4.0,47,0.00,,SKC,0.00,VWS V13.01,2013-01-15 19:01:00,
2013-01-15 13:06:00,35.6,16.4,30.23,WSW,238,4.0,7.0,45,0.00,,SKC,0.00,VWS V13.01,2013-01-15 19:06:00,
2013-01-15 13:11:00,35.7,15.9,30.23,WSW,251,2.0,5.0,44,0.00,,SKC,0.00,VWS V13.01,2013-01-15 19:11:00,
2013-01-15 13:16:00,35.5,16.3,30.22,SW,231,14.0,14.0,45,0.00,,SKC,0.00,VWS V13.01,2013-01-15 19:16:00,
2013-01-15 13:22:00,35.0,15.8,30.22,WSW,242,0.0,3.0,45,0.00,,SKC,0.00,VWS V13.01,2013-01-15 19:22:00,
2013-01-15 13:27:00,36.1,16.8,30.22,SW,216,5.0,14.0,45,0.00,,SKC,0.00,VWS V13.01,2013-01-15 19:27:00,
2013-01-15 13:32:00,36.4,16.6,30.22,South,191,1.0,6.0,44,0.00,,SKC,0.00,VWS V13.01,2013-01-15 19:32:00,
2013-01-15 13:37:00,37.0,17.6,30.22,SSW,202,0.0,4.0,45,0.00,,SKC,0.00,VWS V13.01,2013-01-15 19:37:00,
2013-01-15 13:42:00,37.1,17.2,30.21,SSW,195,6.0,16.0,44,0.00,,SKC,0.00,VWS V13.01,2013-01-15 19:42:00,
2013-01-15 13:47:00,36.2,16.4,30.21,SW,232,2.0,11.0,44,0.00,,SKC,0.00,VWS V13.01,2013-01-15 19:47:00,
2013-01-15 13:53:00,35.9,16.6,30.21,West,278,11.0,14.0,45,0.00,,SKC,0.00,VWS V13.01,2013-01-15 19:53:00,
2013-01-15 13:58:00,35.6,16.9,30.21,West,266,0.0,3.0,46,0.00,,SKC,0.00,VWS V13.01,2013-01-15 19:58:00,
2013-01-15 14:04:00,36.0,17.2,30.21,WSW,241,1.0,5.0,46,0.00,,SKC,0.00,VWS V13.01,2013-01-15 20:04:00,
2013-01-15 14:09:00,36.0,17.2,30.20,WSW,252,5.0,18.0,46,0.00,,SKC,0.00,VWS V13.01,2013-01-15 20:09:00,
2013-01-15 14:14:00,36.0,17.2,30.21,SW,218,4.0,15.0,46,0.00,,SKC,0.00,VWS V13.01,2013-01-15 20:14:00,
2013-01-15 14:19:00,36.3,17.5,30.20,WSW,257,0.0,3.0,46,0.00,,SKC,0.00,VWS V13.01,2013-01-15 20:19:00,
2013-01-15 14:24:00,36.5,18.2,30.20,South,187,1.0,8.0,47,0.00,,SKC,0.00,VWS V13.01,2013-01-15 20:24:00,
2013-01-15 14:29:00,36.4,18.6,30.20,WSW,237,1.0,5.0,48,0.00,,SKC,0.00,VWS V13.01,2013-01-15 20:29:00,
2013-01-15 14:34:00,36.8,18.0,30.20,SW,233,6.0,12.0,46,0.00,,SKC,0.00,VWS V13.01,2013-01-15 20:34:00,
2013-01-15 14:39:00,36.8,18.5,30.20,SW,229,11.0,13.0,47,0.00,,SKC,0.00,VWS V13.01,2013-01-15 20:39:00,
2013-01-15 14:45:00,36.9,19.5,30.20,WSW,254,0.0,5.0,49,0.00,,SKC,0.00,VWS V13.01,2013-01-15 20:45:00,
2013-01-15 14:50:00,37.0,19.1,30.20,SW,224,1.0,3.0,48,0.00,,SKC,0.00,VWS V13.01,2013-01-15 20:50:00,
2013-01-15 14:55:00,37.0,19.1,30.20,WSW,246,3.0,6.0,48,0.00,,SKC,0.00,VWS V13.01,2013-01-15 20:55:00,
2013-01-15 15:00:00,36.4,19.1,30.20,West,268,1.0,3.0,49,0.00,,SKC,0.00,VWS V13.01,2013-01-15 21:00:00,
2013-01-15 15:06:00,36.8,19.0,30.19,WSW,248,2.0,15.0,48,0.00,,SKC,0.00,VWS V13.01,2013-01-15 21:06:00,
2013-01-15 15:11:00,36.3,19.0,30.19,WSW,242,4.0,7.0,49,0.00,,SKC,0.00,VWS V13.01,2013-01-15 21:11:00,
2013-01-15 15:16:00,36.5,19.2,30.19,SW,225,8.0,11.0,49,0.00,,SKC,0.00,VWS V13.01,2013-01-15 21:16:00,
2013-01-15 15:21:00,36.8,20.4,30.19,South,187,0.0,0.0,51,0.00,,SKC,0.00,VWS V13.01,2013-01-15 21:21:00,
2013-01-15 15:26:00,36.8,19.0,30.19,SW,227,1.0,12.0,48,0.00,,SKC,0.00,VWS V13.01,2013-01-15 21:26:00,
2013-01-15 15:31:00,35.9,19.1,30.19,WSW,241,1.0,2.0,50,0.00,,SKC,0.00,VWS V13.01,2013-01-15 21:31:00,
2013-01-15 15:36:00,36.4,19.5,30.19,WSW,240,1.0,4.0,50,0.00,,SKC,0.00,VWS V13.01,2013-01-15 21:36:00,
2013-01-15 15:41:00,36.3,19.0,30.19,WSW,249,2.0,13.0,49,0.00,,SKC,0.00,VWS V13.01,2013-01-15 21:41:00,
2013-01-15 15:46:00,36.9,20.0,30.19,SW,235,1.0,3.0,50,0.00,,SKC,0.00,VWS V13.01,2013-01-15 21:46:00,
2013-01-15 15:51:00,36.4,19.5,30.19,WSW,239,1.0,7.0,50,0.00,,SKC,0.00,VWS V13.01,2013-01-15 21:51:00,
2013-01-15 15:56:00,35.5,19.6,30.19,WSW,238,4.0,5.0,52,0.00,,SKC,0.00,VWS V13.01,2013-01-15 21:56:00,
2013-01-15 16:01:00,35.2,19.4,30.19,WSW,252,4.0,5.0,52,0.00,,SKC,0.00,VWS V13.01,2013-01-15 22:01:00,
2013-01-15 16:06:00,34.9,19.5,30.19,WSW,243,5.0,5.0,53,0.00,,SKC,0.00,VWS V13.01,2013-01-15 22:06:00,
2013-01-15 16:11:00,34.8,19.9,30.19,SW,224,5.0,7.0,54,0.00,,SKC,0.00,VWS V13.01,2013-01-15 22:11:00,
2013-01-15 16:16:00,34.8,19.9,30.19,SW,235,0.0,0.0,54,0.00,,SKC,0.00,VWS V13.01,2013-01-15 22:16:00,
2013-01-15 16:21:00,35.4,20.4,30.19,SW,233,0.0,3.0,54,0.00,,SKC,0.00,VWS V13.01,2013-01-15 22:21:00,
2013-01-15 16:26:00,36.1,20.6,30.18,SW,214,2.0,8.0,53,0.00,,SKC,0.00,VWS V13.01,2013-01-15 22:26:00,
2013-01-15 16:31:00,36.1,20.2,30.18,South,174,0.0,3.0,52,0.00,,SKC,0.00,VWS V13.01,2013-01-15 22:31:00,
2013-01-15 16:36:00,35.7,19.8,30.18,SW,222,0.0,2.0,52,0.00,,SKC,0.00,VWS V13.01,2013-01-15 22:36:00,
2013-01-15 16:41:00,35.3,19.9,30.18,SW,230,0.0,3.0,53,0.00,,SKC,0.00,VWS V13.01,2013-01-15 22:41:00,
2013-01-15 16:46:00,35.0,20.0,30.18,WSW,237,0.0,2.0,54,0.00,,SKC,0.00,VWS V13.01,2013-01-15 22:46:00,
2013-01-15 16:51:00,34.6,20.1,30.18,SW,220,1.0,2.0,55,0.00,,SKC,0.00,VWS V13.01,2013-01-15 22:51:00,
2013-01-15 16:56:00,34.4,20.3,30.17,SW,218,0.0,4.0,56,0.00,,SKC,0.00,VWS V13.01,2013-01-15 22:56:00,
2013-01-15 17:02:00,34.2,20.1,30.17,SSW,210,0.0,0.0,56,0.00,,SKC,0.00,VWS V13.01,2013-01-15 23:02:00,
2013-01-15 17:07:00,33.9,20.3,30.17,SW,216,0.0,1.0,57,0.00,,SKC,0.00,VWS V13.01,2013-01-15 23:07:00,
2013-01-15 17:12:00,33.7,20.1,30.17,SW,220,0.0,2.0,57,0.00,,SKC,0.00,VWS V13.01,2013-01-15 23:12:00,
2013-01-15 17:17:00,33.5,20.3,30.17,SW,216,0.0,1.0,58,0.00,,SKC,0.00,VWS V13.01,2013-01-15 23:17:00,
2013-01-15 17:23:00,33.1,19.9,30.17,SSW,213,0.0,1.0,58,0.00,,SKC,0.00,VWS V13.01,2013-01-15 23:23:00,
2013-01-15 17:28:00,32.8,20.1,30.17,SSW,212,0.0,1.0,59,0.00,,SKC,0.00,VWS V13.01,2013-01-15 23:28:00,
2013-01-15 17:33:00,32.5,19.8,30.17,SSW,212,0.0,0.0,59,0.00,,SKC,0.00,VWS V13.01,2013-01-15 23:33:00,
2013-01-15 17:38:00,32.2,19.9,30.17,SSW,212,0.0,0.0,60,0.00,,SKC,0.00,VWS V13.01,2013-01-15 23:38:00,
2013-01-15 17:43:00,31.9,20.0,30.17,SSW,213,0.0,0.0,61,0.00,,SKC,0.00,VWS V13.01,2013-01-15 23:43:00,
2013-01-15 17:48:00,31.6,19.7,30.17,SSW,213,0.0,0.0,61,0.00,,SKC,0.00,VWS V13.01,2013-01-15 23:48:00,
2013-01-15 17:53:00,31.4,19.9,30.17,SSW,213,0.0,0.0,62,0.00,,SKC,0.00,VWS V13.01,2013-01-15 23:53:00,
2013-01-15 17:58:00,31.2,19.7,30.17,SSW,213,0.0,0.0,62,0.00,,SKC,0.00,VWS V13.01,2013-01-15 23:58:00,
2013-01-15 18:04:00,30.9,19.8,30.17,SSW,213,0.0,0.0,63,0.00,,SKC,0.00,VWS V13.01,2013-01-16 00:04:00,
2013-01-15 18:09:00,30.8,19.7,30.17,SSW,213,0.0,0.0,63,0.00,,SKC,0.00,VWS V13.01,2013-01-16 00:09:00,
2013-01-15 18:14:00,30.6,19.9,30.17,SSW,213,0.0,0.0,64,0.00,,SKC,0.00,VWS V13.01,2013-01-16 00:14:00,
2013-01-15 18:19:00,30.4,19.7,30.17,SSW,213,0.0,0.0,64,0.00,,SKC,0.00,VWS V13.01,2013-01-16 00:19:00,
2013-01-15 18:24:00,30.1,19.4,30.17,SSW,213,0.0,0.0,64,0.00,,SKC,0.00,VWS V13.01,2013-01-16 00:24:00,
2013-01-15 18:29:00,30.0,19.7,30.17,SSW,213,0.0,0.0,65,0.00,,SKC,0.00,VWS V13.01,2013-01-16 00:29:00,
2013-01-15 18:34:00,29.8,19.5,30.17,SSW,213,0.0,0.0,65,0.00,,SKC,0.00,VWS V13.01,2013-01-16 00:34:00,
2013-01-15 18:39:00,29.7,19.4,30.17,SSW,213,0.0,0.0,65,0.00,,SKC,0.00,VWS V13.01,2013-01-16 00:39:00,
2013-01-15 18:44:00,29.5,19.6,30.17,SW,214,0.0,0.0,66,0.00,,SKC,0.00,VWS V13.01,2013-01-16 00:44:00,
2013-01-15 18:49:00,29.3,19.4,30.17,SW,214,0.0,0.0,66,0.00,,SKC,0.00,VWS V13.01,2013-01-16 00:49:00,
2013-01-15 18:54:00,29.1,19.2,30.17,SSW,213,0.0,0.0,66,0.00,,SKC,0.00,VWS V13.01,2013-01-16 00:54:00,
2013-01-15 18:59:00,29.0,19.4,30.17,SW,214,0.0,0.0,67,0.00,,SKC,0.00,VWS V13.01,2013-01-16 00:59:00,
2013-01-15 19:04:00,28.8,19.2,30.16,SW,214,0.0,0.0,67,0.00,,SKC,0.00,VWS V13.01,2013-01-16 01:04:00,
2013-01-15 19:09:00,28.6,19.0,30.16,SSW,213,0.0,0.0,67,0.00,,SKC,0.00,VWS V13.01,2013-01-16 01:09:00,
2013-01-15 19:14:00,28.5,19.3,30.16,SSW,213,0.0,0.0,68,0.00,,SKC,0.00,VWS V13.01,2013-01-16 01:14:00,
2013-01-15 19:19:00,28.3,19.1,30.16,SSW,213,0.0,0.0,68,0.00,,SKC,0.00,VWS V13.01,2013-01-16 01:19:00,
2013-01-15 19:24:00,28.1,18.9,30.16,SSW,213,0.0,0.0,68,0.00,,SKC,0.00,VWS V13.01,2013-01-16 01:24:00,
2013-01-15 19:29:00,27.9,19.1,30.16,SSW,213,0.0,0.0,69,0.00,,SKC,0.00,VWS V13.01,2013-01-16 01:29:00,
2013-01-15 19:34:00,27.8,19.0,30.15,SSW,213,0.0,0.0,69,0.00,,SKC,0.00,VWS V13.01,2013-01-16 01:34:00,
2013-01-15 19:39:00,27.7,18.9,30.15,SSW,213,0.0,0.0,69,0.00,,SKC,0.00,VWS V13.01,2013-01-16 01:39:00,
2013-01-15 19:44:00,27.6,19.1,30.15,SW,214,0.0,0.0,70,0.00,,SKC,0.00,VWS V13.01,2013-01-16 01:44:00,
2013-01-15 19:49:00,27.5,18.7,30.15,SSW,213,0.0,0.0,69,0.00,,SKC,0.00,VWS V13.01,2013-01-16 01:49:00,
2013-01-15 19:54:00,27.4,18.9,30.14,SSW,213,0.0,0.0,70,0.00,,SKC,0.00,VWS V13.01,2013-01-16 01:54:00,
2013-01-15 19:59:00,27.2,18.7,30.14,SSW,213,0.0,0.0,70,0.00,,SKC,0.00,VWS V13.01,2013-01-16 01:59:00,
2013-01-15 20:04:00,27.1,18.6,30.14,SSW,213,0.0,0.0,70,0.00,,SKC,0.00,VWS V13.01,2013-01-16 02:04:00,
2013-01-15 20:10:00,27.0,18.5,30.14,SSW,213,0.0,0.0,70,0.00,,SKC,0.00,VWS V13.01,2013-01-16 02:10:00,
2013-01-15 20:15:00,26.8,18.3,30.14,SSW,213,0.0,0.0,70,0.00,,SKC,0.00,VWS V13.01,2013-01-16 02:15:00,
2013-01-15 20:20:00,26.7,18.2,30.14,SSW,213,0.0,0.0,70,0.00,,SKC,0.00,VWS V13.01,2013-01-16 02:20:00,
2013-01-15 20:25:00,26.6,18.5,30.13,SSW,213,0.0,0.0,71,0.00,,SKC,0.00,VWS V13.01,2013-01-16 02:25:00,
2013-01-15 20:30:00,26.4,18.3,30.13,SSW,213,0.0,0.0,71,0.00,,SKC,0.00,VWS V13.01,2013-01-16 02:30:00,
2013-01-15 20:35:00,26.3,18.2,30.12,SW,214,0.0,0.0,71,0.00,,SKC,0.00,VWS V13.01,2013-01-16 02:35:00,
2013-01-15 20:40:00,26.1,18.0,30.12,SSW,213,0.0,0.0,71,0.00,,SKC,0.00,VWS V13.01,2013-01-16 02:40:00,
2013-01-15 20:45:00,26.1,18.3,30.13,SSW,213,0.0,0.0,72,0.00,,SKC,0.00,VWS V13.01,2013-01-16 02:45:00,
2013-01-15 20:50:00,26.1,18.3,30.12,SSW,213,0.0,0.0,72,0.00,,SKC,0.00,VWS V13.01,2013-01-16 02:50:00,
2013-01-15 20:55:00,26.1,18.3,30.12,SSW,213,0.0,0.0,72,0.00,,SKC,0.00,VWS V13.01,2013-01-16 02:55:00,
2013-01-15 21:00:00,26.1,18.3,30.13,SW,214,0.0,0.0,72,0.00,,SKC,0.00,VWS V13.01,2013-01-16 03:00:00,
2013-01-15 21:05:00,26.0,18.2,30.13,SSW,213,0.0,0.0,72,0.00,,SKC,0.00,VWS V13.01,2013-01-16 03:05:00,
2013-01-15 21:10:00,26.0,18.2,30.13,SSW,213,0.0,0.0,72,0.00,,SKC,0.00,VWS V13.01,2013-01-16 03:10:00,
2013-01-15 21:15:00,25.9,18.1,30.13,SSW,213,0.0,0.0,72,0.00,,SKC,0.00,VWS V13.01,2013-01-16 03:15:00,
2013-01-15 21:20:00,25.7,17.9,30.12,SW,214,0.0,0.0,72,0.00,,SKC,0.00,VWS V13.01,2013-01-16 03:20:00,
2013-01-15 21:25:00,25.7,17.9,30.12,SSW,213,0.0,0.0,72,0.00,,SKC,0.00,VWS V13.01,2013-01-16 03:25:00,
2013-01-15 21:30:00,25.5,18.1,30.12,SSW,213,0.0,0.0,73,0.00,,SKC,0.00,VWS V13.01,2013-01-16 03:30:00,
2013-01-15 21:35:00,25.4,18.0,30.12,SSW,213,0.0,0.0,73,0.00,,SKC,0.00,VWS V13.01,2013-01-16 03:35:00,
2013-01-15 21:40:00,25.3,17.9,30.12,SW,214,0.0,0.0,73,0.00,,SKC,0.00,VWS V13.01,2013-01-16 03:40:00,
2013-01-15 21:45:00,25.2,18.1,30.12,SSW,213,0.0,0.0,74,0.00,,SKC,0.00,VWS V13.01,2013-01-16 03:45:00,
2013-01-15 21:50:00,25.1,18.0,30.11,SSW,213,0.0,0.0,74,0.00,,SKC,0.00,VWS V13.01,2013-01-16 03:50:00,
2013-01-15 21:55:00,24.9,17.8,30.11,SSW,213,0.0,0.0,74,0.00,,SKC,0.00,VWS V13.01,2013-01-16 03:55:00,
2013-01-15 22:00:00,24.9,18.1,30.11,SSW,213,0.0,0.0,75,0.00,,SKC,0.00,VWS V13.01,2013-01-16 04:00:00,
2013-01-15 22:05:00,25.1,18.3,30.11,SSW,213,0.0,0.0,75,0.00,,SKC,0.00,VWS V13.01,2013-01-16 04:05:00,
2013-01-15 22:10:00,25.2,18.4,30.10,SW,223,0.0,1.0,75,0.00,,SKC,0.00,VWS V13.01,2013-01-16 04:10:00,
2013-01-15 22:15:00,25.3,18.5,30.10,SW,224,0.0,1.0,75,0.00,,SKC,0.00,VWS V13.01,2013-01-16 04:15:00,
2013-01-15 22:20:00,25.3,18.5,30.10,SW,228,0.0,0.0,75,0.00,,SKC,0.00,VWS V13.01,2013-01-16 04:20:00,
2013-01-15 22:25:00,25.2,18.4,30.10,SW,228,0.0,0.0,75,0.00,,SKC,0.00,VWS V13.01,2013-01-16 04:25:00,
2013-01-15 22:30:00,25.0,18.2,30.10,SW,228,0.0,0.0,75,0.00,,SKC,0.00,VWS V13.01,2013-01-16 04:30:00,
2013-01-15 22:35:00,24.8,18.3,30.10,SW,228,0.0,1.0,76,0.00,,SKC,0.00,VWS V13.01,2013-01-16 04:35:00,
2013-01-15 22:40:00,24.8,18.3,30.09,SW,228,0.0,1.0,76,0.00,,SKC,0.00,VWS V13.01,2013-01-16 04:40:00,
2013-01-15 22:45:00,24.7,18.2,30.09,SW,227,0.0,1.0,76,0.00,,SKC,0.00,VWS V13.01,2013-01-16 04:45:00,
2013-01-15 22:50:00,24.7,18.2,30.09,SW,214,0.0,2.0,76,0.00,,SKC,0.00,VWS V13.01,2013-01-16 04:50:00,
2013-01-15 22:55:00,24.9,18.7,30.09,SSW,212,0.0,1.0,77,0.00,,SKC,0.00,VWS V13.01,2013-01-16 04:55:00,
2013-01-15 23:00:00,25.1,18.9,30.09,SW,215,1.0,2.0,77,0.00,,SKC,0.00,VWS V13.01,2013-01-16 05:00:00,
2013-01-15 23:03:00,25.1,18.6,30.09,SW,220,0.0,1.0,76,0.00,,SKC,0.00,VWS V13.01,2013-01-16 05:03:00,
2013-01-15 23:06:00,25.1,18.6,30.08,SW,220,1.0,2.0,76,0.00,,SKC,0.00,VWS V13.01,2013-01-16 05:06:00,
2013-01-15 23:09:00,25.0,18.5,30.08,SW,216,0.0,2.0,76,0.00,,SKC,0.00,VWS V13.01,2013-01-16 05:09:00,
2013-01-15 23:14:00,25.1,18.6,30.08,SW,225,0.0,2.0,76,0.00,,SKC,0.00,VWS V13.01,2013-01-16 05:14:00,
2013-01-15 23:20:00,25.1,18.6,30.08,SW,226,1.0,2.0,76,0.00,,SKC,0.00,VWS V13.01,2013-01-16 05:20:00,
2013-01-15 23:25:00,25.0,18.5,30.08,SW,227,0.0,1.0,76,0.00,,SKC,0.00,VWS V13.01,2013-01-16 05:25:00,
2013-01-15 23:30:00,24.9,18.4,30.08,SW,228,1.0,1.0,76,0.00,,SKC,0.00,VWS V13.01,2013-01-16 05:30:00,
2013-01-15 23:35:00,24.7,18.5,30.07,SW,230,0.0,0.0,77,0.00,,SKC,0.00,VWS V13.01,2013-01-16 05:35:00,
2013-01-15 23:40:00,24.5,18.3,30.07,SW,230,1.0,1.0,77,0.00,,SKC,0.00,VWS V13.01,2013-01-16 05:40:00,
2013-01-15 23:45:00,24.6,18.4,30.07,SW,236,1.0,2.0,77,0.00,,SKC,0.00,VWS V13.01,2013-01-16 05:45:00,
2013-01-15 23:50:00,24.6,18.4,30.07,SW,224,0.0,1.0,77,0.00,,SKC,0.00,VWS V13.01,2013-01-16 05:50:00,
2013-01-15 23:55:00,24.5,18.3,30.07,SW,224,0.0,1.0,77,0.00,,SKC,0.00,VWS V13.01,2013-01-16 05:55:00,